Terminal Aerodrome Forecast
Issued by NWS Chicago, IL

Home | Current Version | Previous Version | Text Only | Print | Product List | Glossary On
Versions: 1 2 3 4 5 6 7 8 9 10 11 12 13 14 15 16 17 18 19 20 21 22 23 24 25 26 27 28 29 30 31 32 33 34
000
FTUS43 KLOT 211600 AAD
TAFRFD
TAF AMD
KRFD 211614Z 2116/2212 20009KT P6SM VCTS FEW050CB SCT100 OVC150
     FM211800 20011G18KT P6SM SCT050 BKN100 OVC200
     FM220000 18005KT P6SM SCT040 BKN100
     FM220200 22006KT P6SM VCSH SCT050 BKN100 PROB30 2203/2209 4SM
      -TSRA BR BKN050CB
     FM221000 22007KT 4SM BR BKN040=

USA.gov is the U.S. government's official web portal to all federal, state and local government web resources and services.